Terminal Aerodrome Forecast
Issued by NWS

Home | Current Version | Previous Version | Text Only | Print | Product List | Glossary Off
Versions: 1 2 3 4 5 6 7 8 9 10 11 12

000
FTUS43 KBIS 150500
TAFJMS
TAF
KJMS 150529Z 1506/1606 33003KT P6SM OVC070
     FM150800 VRB03KT P6SM FEW080
     FM151600 28007KT P6SM FEW140=

USA.gov is the U.S. government's official web portal to all federal, state and local government web resources and services.